createdAt,value
2022-08-05T00:01:27.661Z,1.25
2022-08-05T00:03:57.109Z,1.40
2022-08-05T00:06:32.484Z,2.08
2022-08-05T00:09:00.963Z,1.20
2022-08-05T00:11:34.622Z,1.38
2022-08-05T00:14:17.166Z,1.58
2022-08-05T00:16:52.369Z,1.40
2022-08-05T00:19:19.679Z,1.08
2022-08-05T00:21:48.690Z,1.48
2022-08-05T00:24:18.970Z,1.30
2022-08-05T00:26:51.740Z,1.30
2022-08-05T00:29:18.652Z,1.10
2022-08-05T00:32:10.693Z,1.63
2022-08-05T00:34:53.629Z,1.50
2022-08-05T00:37:21.747Z,1.13
2022-08-05T00:39:58.053Z,1.60
2022-08-05T00:42:33.166Z,1.10
2022-08-05T00:45:00.673Z,1.27
2022-08-05T00:47:53.009Z,1.67
2022-08-05T00:50:13.855Z,1.58
2022-08-05T00:52:41.799Z,1.67
2022-08-05T00:55:12.246Z,1.00
2022-08-05T00:57:58.356Z,1.25
2022-08-05T01:00:26.236Z,1.92
2022-08-05T01:02:53.074Z,1.90
2022-08-05T01:05:19.750Z,1.40
2022-08-05T01:08:29.927Z,1.30
2022-08-05T01:10:42.129Z,1.38
2022-08-05T01:14:16.626Z,1.17
2022-08-05T01:17:05.938Z,0.80
2022-08-05T01:20:01.764Z,1.25
2022-08-05T01:22:50.278Z,1.52
2022-08-05T01:25:54.629Z,1.27
2022-08-05T01:28:49.421Z,1.40
2022-08-05T01:31:42.545Z,1.70
2022-08-05T01:34:15.840Z,1.50
2022-08-05T01:36:47.754Z,1.20
2022-08-05T01:39:15.951Z,1.10
2022-08-05T01:42:03.395Z,1.38
2022-08-05T01:44:34.214Z,1.17
2022-08-05T01:47:02.490Z,1.30
2022-08-05T01:50:00.477Z,1.13
2022-08-05T01:52:21.271Z,1.23
2022-08-05T01:54:54.331Z,1.33
2022-08-05T01:58:13.575Z,1.58
2022-08-05T02:00:30.478Z,1.52
2022-08-05T02:03:03.627Z,1.80
2022-08-05T02:05:34.284Z,1.35
2022-08-05T02:08:04.127Z,1.23
2022-08-05T02:10:45.068Z,1.27
2022-08-05T02:13:17.730Z,1.42
2022-08-05T02:15:47.692Z,1.83
2022-08-05T02:18:31.908Z,1.85
2022-08-05T02:21:13.245Z,1.73
2022-08-05T02:23:44.601Z,1.42
2022-08-05T02:26:14.878Z,1.63
2022-08-05T02:28:46.347Z,1.42
2022-08-05T02:31:22.494Z,1.38
2022-08-05T02:33:57.541Z,1.23
2022-08-05T02:36:27.397Z,1.30
2022-08-05T02:38:56.412Z,1.30
2022-08-05T02:41:28.697Z,1.25
2022-08-05T02:44:13.110Z,1.88
2022-08-05T02:46:53.340Z,0.93
2022-08-05T02:49:36.529Z,1.92
2022-08-05T02:52:07.588Z,1.48
2022-08-05T02:54:37.244Z,1.45
2022-08-05T02:57:10.077Z,1.38
2022-08-05T02:59:55.237Z,1.50
2022-08-05T03:02:29.362Z,2.03
2022-08-05T03:04:57.484Z,1.15
2022-08-05T03:08:00.848Z,1.80
2022-08-05T03:10:15.074Z,1.30
2022-08-05T03:12:41.589Z,1.25
2022-08-05T03:15:12.341Z,1.65
2022-08-05T03:17:41.499Z,1.20
2022-08-05T03:20:09.240Z,1.27
2022-08-05T03:22:36.964Z,1.75
2022-08-05T03:25:33.937Z,1.52
2022-08-05T03:27:59.292Z,1.38
2022-08-05T03:30:33.732Z,1.35
2022-08-05T03:33:05.732Z,2.05
2022-08-05T03:35:33.692Z,1.30
2022-08-05T03:38:01.079Z,1.10
2022-08-05T03:40:31.972Z,1.75
2022-08-05T03:43:15.715Z,1.98
2022-08-05T03:45:57.682Z,1.55
2022-08-05T03:48:27.524Z,2.05
2022-08-05T03:52:35.299Z,1.85
2022-08-05T03:55:50.310Z,1.70
2022-08-05T03:56:59.879Z,1.67
2022-08-05T03:59:47.120Z,1.58
2022-08-05T04:02:37.565Z,1.80
2022-08-05T04:05:09.690Z,1.23
2022-08-05T04:07:57.192Z,1.65
2022-08-05T04:10:32.064Z,1.30
2022-08-05T04:13:04.566Z,1.25
2022-08-05T04:15:33.358Z,1.70
2022-08-05T04:18:06.723Z,1.80
2022-08-05T04:20:33.994Z,1.55
2022-08-05T04:23:00.455Z,1.33
2022-08-05T04:25:56.414Z,1.52
2022-08-05T04:28:14.157Z,1.80
2022-08-05T04:30:41.599Z,2.35
2022-08-05T04:33:09.446Z,1.45
2022-08-05T04:36:10.860Z,2.05
2022-08-05T04:38:22.390Z,1.90
2022-08-05T04:41:06.772Z,2.17
2022-08-05T04:43:34.029Z,1.85
2022-08-05T04:46:00.898Z,2.30
2022-08-05T04:48:28.368Z,1.67
2022-08-05T04:51:02.753Z,1.50
2022-08-05T04:53:33.540Z,1.73
2022-08-05T04:56:32.790Z,1.65
2022-08-05T04:58:48.948Z,1.45
2022-08-05T05:01:15.753Z,1.92
2022-08-05T05:04:02.154Z,2.03
2022-08-05T05:06:35.901Z,2.15
2022-08-05T05:09:07.401Z,1.60
2022-08-05T05:11:52.858Z,1.80
2022-08-05T05:14:31.261Z,2.22
2022-08-05T05:17:02.093Z,1.52
2022-08-05T05:19:36.466Z,1.80
2022-08-05T05:22:24.169Z,1.40
2022-08-05T05:24:57.927Z,1.73
2022-08-05T05:27:45.888Z,2.38
2022-08-05T05:30:30.542Z,1.33
2022-08-05T05:33:00.063Z,1.42
2022-08-05T05:35:31.620Z,2.05
2022-08-05T05:38:03.035Z,1.95
2022-08-05T05:40:32.134Z,1.90
2022-08-05T05:42:59.319Z,1.50
2022-08-05T05:45:25.921Z,1.73
2022-08-05T05:48:06.626Z,1.80
2022-08-05T05:50:44.042Z,1.60
2022-08-05T05:53:21.059Z,1.50
2022-08-05T05:55:51.636Z,1.80
2022-08-05T05:58:31.990Z,1.80
2022-08-05T06:01:12.264Z,1.63
2022-08-05T06:04:00.469Z,1.63
2022-08-05T06:06:28.096Z,1.63
2022-08-05T06:08:58.188Z,2.00
2022-08-05T06:11:24.717Z,1.98
2022-08-05T06:13:55.355Z,2.42
2022-08-05T06:16:31.006Z,1.85
2022-08-05T06:19:01.102Z,1.77
2022-08-05T06:21:36.065Z,1.83
2022-08-05T06:24:07.689Z,1.98
2022-08-05T06:26:37.824Z,1.73
2022-08-05T06:29:06.926Z,1.83
2022-08-05T06:31:51.932Z,2.10
2022-08-05T06:34:20.189Z,1.83
2022-08-05T06:36:57.414Z,2.13
2022-08-05T06:39:27.670Z,1.60
2022-08-05T06:41:57.375Z,1.45
2022-08-05T06:44:25.466Z,1.35
2022-08-05T06:46:52.715Z,1.40
2022-08-05T06:49:21.469Z,1.70
2022-08-05T06:52:07.624Z,1.50
2022-08-05T06:54:54.050Z,0.98
2022-08-05T06:57:57.737Z,1.55
2022-08-05T07:00:07.869Z,1.35
2022-08-05T07:02:43.819Z,1.38
2022-08-05T07:05:18.544Z,1.50
2022-08-05T07:07:48.923Z,1.70
2022-08-05T07:10:16.402Z,1.60
2022-08-05T07:13:01.932Z,1.67
2022-08-05T07:16:01.904Z,1.90
2022-08-05T07:18:31.859Z,1.52
2022-08-05T07:20:58.613Z,1.80
2022-08-05T07:23:31.412Z,2.25
2022-08-05T07:25:57.859Z,1.85
2022-08-05T07:28:25.274Z,2.25
2022-08-05T07:30:54.726Z,1.80
2022-08-05T07:33:37.233Z,1.75
2022-08-05T07:36:20.174Z,3.20
2022-08-05T07:38:48.969Z,1.90
2022-08-05T07:42:08.167Z,2.03
2022-08-05T07:44:12.129Z,2.40
2022-08-05T07:46:41.182Z,1.63
2022-08-05T07:49:14.855Z,1.67
2022-08-05T07:51:53.389Z,1.70
2022-08-05T07:54:30.333Z,2.13
2022-08-05T07:57:01.451Z,1.90
2022-08-05T07:59:41.530Z,2.28
2022-08-05T08:02:16.429Z,1.92
2022-08-05T08:04:48.566Z,1.92
2022-08-05T08:07:15.921Z,2.25
2022-08-05T08:09:43.311Z,1.95
2022-08-05T08:12:27.243Z,2.28
2022-08-05T08:14:56.723Z,2.05
2022-08-05T08:17:28.931Z,2.25
2022-08-05T08:20:42.980Z,1.48
2022-08-05T08:22:43.529Z,1.70
2022-08-05T08:25:16.232Z,1.58
2022-08-05T08:27:47.561Z,1.52
2022-08-05T08:30:29.704Z,1.40
2022-08-05T08:33:02.549Z,1.35
2022-08-05T08:35:35.240Z,1.58
2022-08-05T08:38:08.533Z,2.35
2022-08-05T08:40:39.450Z,1.95
2022-08-05T08:45:17.743Z,1.67
2022-08-05T08:45:54.505Z,1.52
2022-08-05T08:48:43.693Z,1.42
2022-08-05T08:51:22.856Z,1.70
2022-08-05T08:53:55.225Z,1.92
2022-08-05T08:56:23.619Z,1.60
2022-08-05T08:58:53.943Z,1.50
2022-08-05T09:01:21.016Z,1.70
2022-08-05T09:03:57.379Z,2.05
2022-08-05T09:06:29.509Z,1.75
2022-08-05T09:08:59.494Z,1.80
2022-08-05T09:11:53.759Z,1.40
2022-08-05T09:14:56.546Z,1.80
2022-08-05T09:17:00.411Z,1.33
2022-08-05T09:19:36.210Z,1.75
2022-08-05T09:22:30.917Z,1.75
2022-08-05T09:25:01.317Z,1.40
2022-08-05T09:28:05.496Z,1.60
2022-08-05T09:30:23.296Z,1.30
2022-08-05T09:32:50.087Z,2.80
2022-08-05T09:35:26.509Z,1.50
2022-08-05T09:38:17.953Z,1.70
2022-08-05T09:40:52.534Z,1.60
2022-08-05T09:43:40.200Z,1.63
2022-08-05T09:46:27.587Z,1.90
2022-08-05T09:49:07.887Z,1.73
2022-08-05T09:51:49.717Z,1.80
2022-08-05T09:54:29.116Z,1.70
2022-08-05T09:56:57.494Z,1.77
2022-08-05T09:59:28.070Z,1.90
2022-08-05T10:01:57.806Z,2.40
2022-08-05T10:04:35.250Z,1.83
2022-08-05T10:07:14.107Z,1.52
2022-08-05T10:10:14.197Z,1.60
2022-08-05T10:12:49.899Z,2.05
2022-08-05T10:15:27.390Z,2.10
2022-08-05T10:18:12.973Z,1.83
2022-08-05T10:20:44.360Z,1.70
2022-08-05T10:23:34.034Z,1.92
2022-08-05T10:26:07.183Z,2.10
2022-08-05T10:28:36.600Z,2.00
2022-08-05T10:32:48.312Z,1.98
2022-08-05T10:33:54.092Z,2.20
2022-08-05T10:36:23.669Z,1.67
2022-08-05T10:39:01.155Z,1.90
2022-08-05T10:41:44.874Z,2.28
2022-08-05T10:44:17.165Z,1.85
2022-08-05T10:46:50.743Z,2.08
2022-08-05T10:49:27.068Z,1.98
2022-08-05T10:52:02.686Z,2.47
2022-08-05T10:54:57.007Z,1.95
2022-08-05T10:57:32.446Z,2.28
2022-08-05T11:00:26.827Z,1.92
2022-08-05T11:03:23.228Z,2.35
2022-08-05T11:06:08.519Z,1.63
2022-08-05T11:09:10.380Z,1.85
2022-08-05T11:11:44.771Z,1.70
2022-08-05T11:17:59.229Z,1.80
2022-08-05T11:20:39.177Z,1.92
2022-08-05T11:24:29.632Z,2.03
2022-08-05T11:26:52.035Z,1.73
2022-08-05T11:29:37.177Z,1.73
2022-08-05T11:32:23.469Z,1.70
2022-08-05T11:34:55.199Z,1.90
2022-08-05T11:38:30.566Z,2.30
2022-08-05T11:41:34.480Z,2.30
2022-08-05T11:44:05.473Z,2.03
2022-08-05T11:47:09.841Z,2.65
2022-08-05T11:49:34.004Z,1.98
2022-08-05T11:52:00.906Z,1.85
2022-08-05T11:54:34.481Z,1.90
2022-08-05T11:57:24.523Z,1.75
2022-08-05T11:59:50.825Z,2.05
2022-08-05T12:02:29.845Z,1.73
2022-08-05T12:04:59.643Z,2.10
2022-08-05T12:08:03.540Z,1.67
2022-08-05T12:10:13.979Z,1.52
2022-08-05T12:12:55.370Z,2.05
2022-08-05T12:15:38.792Z,1.60
2022-08-05T12:18:10.728Z,1.60
2022-08-05T12:20:38.891Z,1.40
2022-08-05T12:23:09.930Z,1.23
2022-08-05T12:25:56.435Z,1.50
2022-08-05T12:28:37.155Z,1.20
2022-08-05T12:31:04.859Z,1.85
2022-08-05T12:33:36.678Z,1.17
2022-08-05T12:36:08.015Z,1.65
2022-08-05T12:38:40.122Z,1.40
2022-08-05T12:41:13.443Z,1.90
2022-08-05T12:44:11.679Z,1.40
2022-08-05T12:46:45.477Z,1.90
2022-08-05T12:49:19.091Z,1.63
2022-08-05T12:52:14.234Z,0.95
2022-08-05T12:54:33.145Z,1.20
2022-08-05T12:57:05.045Z,1.23
2022-08-05T13:01:57.017Z,1.00
2022-08-05T13:02:37.334Z,1.30
2022-08-05T13:05:07.204Z,1.10
2022-08-05T13:07:59.751Z,1.58
2022-08-05T13:10:20.600Z,2.08
2022-08-05T13:12:51.221Z,1.20
2022-08-05T13:15:41.294Z,1.25
2022-08-05T13:18:18.916Z,1.60
2022-08-05T13:20:47.420Z,1.48
2022-08-05T13:23:16.389Z,1.20
2022-08-05T13:25:52.412Z,1.38
2022-08-05T13:28:27.025Z,1.48
2022-08-05T13:30:53.753Z,1.23
2022-08-05T13:34:24.470Z,1.50
2022-08-05T13:36:09.216Z,1.20
2022-08-05T13:38:42.324Z,1.40
2022-08-05T13:41:11.209Z,1.55
2022-08-05T13:43:43.578Z,1.20
2022-08-05T13:46:50.556Z,1.80
2022-08-05T13:49:10.523Z,1.27
2022-08-05T13:51:40.844Z,1.23
2022-08-05T13:54:15.181Z,1.55
2022-08-05T13:56:45.093Z,1.08
2022-08-05T13:59:19.739Z,1.08
2022-08-05T14:01:57.444Z,1.45
2022-08-05T14:04:49.932Z,1.10
2022-08-05T14:07:55.584Z,1.13
2022-08-05T14:10:13.984Z,1.17
2022-08-05T14:12:48.730Z,1.00
2022-08-05T14:16:04.633Z,1.10
2022-08-05T14:18:02.698Z,1.00
2022-08-05T14:20:31.189Z,0.95
2022-08-05T14:22:58.723Z,0.80
2022-08-05T14:25:27.946Z,1.20
2022-08-05T14:27:55.518Z,1.20
2022-08-05T14:30:22.664Z,1.27
2022-08-05T14:32:52.914Z,2.15
2022-08-05T14:35:20.741Z,1.27
2022-08-05T14:37:53.595Z,1.17
2022-08-05T14:40:24.251Z,1.20
2022-08-05T14:42:51.939Z,1.00
2022-08-05T14:45:18.501Z,0.90
2022-08-05T14:48:04.270Z,1.20
2022-08-05T14:50:31.691Z,1.20
2022-08-05T14:52:59.606Z,1.27
2022-08-05T14:55:38.385Z,1.42
2022-08-05T14:58:10.912Z,1.40
2022-08-05T15:00:58.027Z,1.70
2022-08-05T15:03:33.696Z,1.00
2022-08-05T15:06:07.960Z,1.20
2022-08-05T15:08:59.292Z,1.20
2022-08-05T15:11:51.323Z,1.20
2022-08-05T15:14:34.009Z,0.95
2022-08-05T15:17:01.739Z,1.20
2022-08-05T15:19:30.726Z,1.10
2022-08-05T15:22:00.000Z,1.33
2022-08-05T15:24:27.611Z,1.10
2022-08-05T15:26:54.154Z,1.33
2022-08-05T15:29:22.801Z,0.70
2022-08-05T15:31:52.778Z,1.15
2022-08-05T15:34:32.491Z,1.02
2022-08-05T15:37:05.087Z,1.13
2022-08-05T15:40:58.278Z,0.70
2022-08-05T15:42:54.165Z,1.10
2022-08-05T15:45:07.665Z,1.30
2022-08-05T15:47:36.429Z,1.00
2022-08-05T15:50:03.907Z,1.10
2022-08-05T15:52:53.108Z,1.50
2022-08-05T15:55:19.249Z,1.05
2022-08-05T15:57:51.155Z,1.00
2022-08-05T16:00:30.476Z,1.27
2022-08-05T16:02:59.685Z,1.35
2022-08-05T16:05:28.230Z,0.95
2022-08-05T16:07:54.704Z,1.30
2022-08-05T16:10:25.536Z,1.10
2022-08-05T16:12:55.880Z,0.95
2022-08-05T16:15:23.624Z,1.13
2022-08-05T16:17:57.820Z,1.40
2022-08-05T16:20:25.116Z,0.98
2022-08-05T16:22:51.562Z,1.38
2022-08-05T16:25:18.178Z,1.20
2022-08-05T16:28:00.340Z,1.13
2022-08-05T16:30:31.784Z,1.50
2022-08-05T16:32:59.585Z,1.20
2022-08-05T16:35:28.332Z,1.20
2022-08-05T16:38:14.955Z,1.27
2022-08-05T16:40:51.739Z,1.02
2022-08-05T16:43:23.681Z,1.35
2022-08-05T16:46:04.343Z,1.13
2022-08-05T16:48:35.315Z,1.10
2022-08-05T16:51:02.331Z,1.20
2022-08-05T16:54:04.365Z,1.20
2022-08-05T16:56:22.309Z,1.10
2022-08-05T16:58:49.843Z,1.65
2022-08-05T17:01:16.420Z,1.45
2022-08-05T17:03:45.636Z,1.08
2022-08-05T17:06:13.021Z,1.20
2022-08-05T17:08:53.544Z,1.02
2022-08-05T17:11:25.091Z,1.00
2022-08-05T17:14:05.371Z,0.95
2022-08-05T17:16:36.648Z,1.08
2022-08-05T17:19:07.828Z,1.10
2022-08-05T17:21:37.800Z,1.05
2022-08-05T17:24:28.266Z,1.38
2022-08-05T17:26:55.754Z,1.20
2022-08-05T17:29:40.223Z,0.80
2022-08-05T17:32:17.116Z,1.10
2022-08-05T17:34:53.276Z,1.08
2022-08-05T17:37:39.567Z,0.90
2022-08-05T17:40:12.328Z,0.77
2022-08-05T17:42:42.874Z,1.00
2022-08-05T17:45:20.185Z,1.35
2022-08-05T17:47:53.974Z,1.10
2022-08-05T17:50:28.315Z,0.95
2022-08-05T17:52:58.760Z,0.75
2022-08-05T17:55:27.455Z,1.55
2022-08-05T17:58:05.627Z,0.88
2022-08-05T18:00:34.536Z,0.93
2022-08-05T18:03:02.089Z,1.10
2022-08-05T18:05:35.222Z,1.20
2022-08-05T18:08:02.379Z,0.80
2022-08-05T18:10:32.141Z,0.75
2022-08-05T18:13:00.102Z,0.80
2022-08-05T18:15:31.188Z,1.27
2022-08-05T18:18:05.759Z,0.68
2022-08-05T18:20:37.775Z,0.90
2022-08-05T18:23:09.172Z,0.70
2022-08-05T18:25:45.496Z,1.90
2022-08-05T18:28:16.034Z,0.90
2022-08-05T18:30:51.362Z,0.95
2022-08-05T18:33:23.130Z,1.38
2022-08-05T18:36:03.424Z,1.50
2022-08-05T18:38:30.917Z,1.20
2022-08-05T18:41:56.291Z,1.60
2022-08-05T18:43:49.155Z,1.35
2022-08-05T18:46:19.778Z,1.88
2022-08-05T18:48:52.324Z,1.63
2022-08-05T18:52:02.475Z,1.73
2022-08-05T18:54:33.470Z,1.15
2022-08-05T18:57:01.481Z,1.25
2022-08-05T18:59:43.923Z,1.85
2022-08-05T19:02:26.667Z,1.42
2022-08-05T19:05:02.532Z,1.15
2022-08-05T19:07:45.057Z,1.70
2022-08-05T19:10:12.402Z,1.58
2022-08-05T19:12:38.954Z,1.85
2022-08-05T19:15:05.994Z,1.88
2022-08-05T19:18:08.785Z,1.55
2022-08-05T19:20:36.942Z,1.48
2022-08-05T19:23:07.727Z,1.77
2022-08-05T19:25:39.026Z,1.10
2022-08-05T19:28:09.991Z,1.50
2022-08-05T19:30:36.534Z,1.48
2022-08-05T19:33:04.686Z,1.65
2022-08-05T19:35:55.938Z,1.60
2022-08-05T19:38:26.494Z,1.33
2022-08-05T19:40:53.471Z,1.33
2022-08-05T19:44:04.608Z,1.92
2022-08-05T19:46:06.451Z,1.50
2022-08-05T19:48:44.038Z,1.10
2022-08-05T19:52:06.036Z,1.05
2022-08-05T19:54:21.846Z,0.95
2022-08-05T19:56:54.105Z,1.30
2022-08-05T19:59:54.517Z,0.90
2022-08-05T20:02:07.293Z,0.77
2022-08-05T20:04:33.767Z,1.00
2022-08-05T20:07:00.190Z,0.82
2022-08-05T20:09:28.542Z,0.75
2022-08-05T20:12:15.088Z,0.68
2022-08-05T20:14:41.926Z,0.73
2022-08-05T20:17:09.930Z,0.73
2022-08-05T20:19:41.424Z,0.88
2022-08-05T20:22:09.587Z,0.73
2022-08-05T20:24:36.460Z,0.60
2022-08-05T20:27:04.760Z,0.75
2022-08-05T20:29:38.287Z,0.50
2022-08-05T20:32:06.440Z,0.60
2022-08-05T20:34:33.052Z,0.50
2022-08-05T20:37:00.888Z,0.63
2022-08-05T20:39:35.452Z,0.63
2022-08-05T20:42:04.434Z,0.32
2022-08-05T20:44:33.069Z,0.25
2022-08-05T20:47:06.590Z,0.30
2022-08-05T20:49:39.282Z,0.30
2022-08-05T20:52:07.272Z,0.50
2022-08-05T20:54:42.759Z,0.28
2022-08-05T20:57:42.072Z,0.30
2022-08-05T21:00:19.846Z,0.32
2022-08-05T21:02:57.807Z,0.63
2022-08-05T21:05:24.705Z,0.25
2022-08-05T21:07:51.960Z,0.20
2022-08-05T21:10:19.266Z,0.40
2022-08-05T21:12:57.970Z,0.20
2022-08-05T21:15:33.625Z,0.50
2022-08-05T21:18:00.634Z,0.22
2022-08-05T21:20:33.295Z,0.30
2022-08-05T21:23:00.358Z,0.25
2022-08-05T21:25:33.496Z,0.30
2022-08-05T21:28:02.782Z,0.20
2022-08-05T21:30:29.330Z,0.50
2022-08-05T21:32:55.788Z,0.30
2022-08-05T21:35:29.935Z,0.30
2022-08-05T21:38:09.203Z,0.60
2022-08-05T21:40:35.773Z,0.20
2022-08-05T21:43:02.197Z,0.65
2022-08-05T21:45:56.240Z,0.25
2022-08-05T21:48:18.646Z,0.50
2022-08-05T21:50:54.139Z,0.65
2022-08-05T21:53:21.547Z,0.10
2022-08-05T21:56:05.098Z,0.40
2022-08-05T21:58:42.022Z,0.40
2022-08-05T22:01:09.175Z,0.50
2022-08-05T22:03:52.601Z,0.65
2022-08-05T22:06:23.131Z,0.32
2022-08-05T22:09:01.774Z,0.50
2022-08-05T22:11:40.629Z,0.28
2022-08-05T22:14:34.553Z,0.25
2022-08-05T22:16:57.934Z,0.43
2022-08-05T22:20:01.750Z,0.20
2022-08-05T22:22:12.266Z,0.52
2022-08-05T22:24:59.642Z,0.40
2022-08-05T22:28:08.943Z,0.75
2022-08-05T22:30:32.490Z,0.40
2022-08-05T22:33:01.902Z,0.82
2022-08-05T22:35:31.206Z,0.45
2022-08-05T22:38:14.804Z,0.40
2022-08-05T22:40:41.748Z,0.47
2022-08-05T22:43:16.258Z,0.43
2022-08-05T22:46:08.756Z,0.40
2022-08-05T22:48:39.108Z,0.57
2022-08-05T22:51:06.782Z,0.50
2022-08-05T22:57:52.797Z,0.57
2022-08-05T23:00:49.365Z,0.40
2022-08-05T23:03:16.332Z,0.50
2022-08-05T23:05:46.114Z,0.40
2022-08-05T23:08:12.670Z,0.25
2022-08-05T23:10:41.705Z,0.55
2022-08-05T23:13:08.719Z,0.60
2022-08-05T23:15:36.477Z,0.47
2022-08-05T23:18:05.861Z,0.63
2022-08-05T23:20:40.427Z,0.40
2022-08-05T23:23:10.886Z,0.60
2022-08-05T23:25:53.251Z,0.57
2022-08-05T23:28:28.743Z,0.47
2022-08-05T23:30:56.741Z,0.82
2022-08-05T23:34:03.932Z,0.50
2022-08-05T23:36:39.821Z,0.50
2022-08-05T23:39:17.544Z,0.65
2022-08-05T23:41:59.371Z,0.60
2022-08-05T23:44:31.061Z,1.30
2022-08-05T23:46:59.970Z,0.65
2022-08-05T23:49:35.968Z,0.35
2022-08-05T23:52:21.608Z,0.63
2022-08-05T23:54:53.169Z,0.70
2022-08-05T23:57:19.714Z,0.60
